sensor_id;sensor_type;location;lat;lon;timestamp;P1;durP1;ratioP1;P2;durP2;ratioP2
43311;SDS011;30041;48.300;16.352;2023-07-29T00:00:15;3.85;;;1.90;;
43311;SDS011;30041;48.300;16.352;2023-07-29T00:02:40;2.90;;;2.00;;
43311;SDS011;30041;48.300;16.352;2023-07-29T00:05:06;2.90;;;1.95;;
43311;SDS011;30041;48.300;16.352;2023-07-29T00:07:32;2.38;;;1.88;;
43311;SDS011;30041;48.300;16.352;2023-07-29T00:09:58;3.13;;;1.85;;
43311;SDS011;30041;48.300;16.352;2023-07-29T00:12:23;2.38;;;1.83;;
43311;SDS011;30041;48.300;16.352;2023-07-29T00:14:52;3.15;;;2.10;;
43311;SDS011;30041;48.300;16.352;2023-07-29T00:17:17;2.72;;;2.00;;
43311;SDS011;30041;48.300;16.352;2023-07-29T00:19:43;3.40;;;1.90;;
43311;SDS011;30041;48.300;16.352;2023-07-29T00:22:09;2.60;;;1.98;;
43311;SDS011;30041;48.300;16.352;2023-07-29T00:24:34;2.63;;;1.80;;
43311;SDS011;30041;48.300;16.352;2023-07-29T00:27:00;4.00;;;2.30;;
43311;SDS011;30041;48.300;16.352;2023-07-29T00:29:25;2.47;;;1.80;;
43311;SDS011;30041;48.300;16.352;2023-07-29T00:31:51;4.47;;;1.83;;
43311;SDS011;30041;48.300;16.352;2023-07-29T00:34:17;2.80;;;2.05;;
43311;SDS011;30041;48.300;16.352;2023-07-29T00:36:42;2.50;;;1.77;;
43311;SDS011;30041;48.300;16.352;2023-07-29T00:39:08;3.70;;;2.03;;
43311;SDS011;30041;48.300;16.352;2023-07-29T00:41:33;2.83;;;1.95;;
43311;SDS011;30041;48.300;16.352;2023-07-29T00:43:59;2.80;;;1.90;;
43311;SDS011;30041;48.300;16.352;2023-07-29T00:46:25;2.47;;;1.85;;
43311;SDS011;30041;48.300;16.352;2023-07-29T00:48:53;3.15;;;2.22;;
43311;SDS011;30041;48.300;16.352;2023-07-29T00:51:19;4.13;;;1.83;;
43311;SDS011;30041;48.300;16.352;2023-07-29T00:53:44;2.78;;;2.05;;
43311;SDS011;30041;48.300;16.352;2023-07-29T00:56:10;3.03;;;1.98;;
43311;SDS011;30041;48.300;16.352;2023-07-29T00:58:36;3.17;;;2.00;;
43311;SDS011;30041;48.300;16.352;2023-07-29T01:01:02;2.67;;;1.95;;
43311;SDS011;30041;48.300;16.352;2023-07-29T01:03:28;2.80;;;1.88;;
43311;SDS011;30041;48.300;16.352;2023-07-29T01:08:38;2.50;;;1.80;;
43311;SDS011;30041;48.300;16.352;2023-07-29T01:11:16;3.08;;;2.10;;
43311;SDS011;30041;48.300;16.352;2023-07-29T01:14:01;2.55;;;1.80;;
43311;SDS011;30041;48.300;16.352;2023-07-29T01:16:41;4.07;;;2.00;;
43311;SDS011;30041;48.300;16.352;2023-07-29T01:19:13;2.88;;;2.20;;
43311;SDS011;30041;48.300;16.352;2023-07-29T01:22:06;2.33;;;1.93;;
43311;SDS011;30041;48.300;16.352;2023-07-29T01:24:33;3.28;;;1.90;;
43311;SDS011;30041;48.300;16.352;2023-07-29T01:26:59;3.53;;;2.17;;
43311;SDS011;30041;48.300;16.352;2023-07-29T01:29:25;3.42;;;2.00;;
43311;SDS011;30041;48.300;16.352;2023-07-29T01:31:51;3.60;;;2.35;;
43311;SDS011;30041;48.300;16.352;2023-07-29T01:34:25;3.05;;;2.22;;
43311;SDS011;30041;48.300;16.352;2023-07-29T01:36:54;2.55;;;2.00;;
43311;SDS011;30041;48.300;16.352;2023-07-29T01:39:25;2.50;;;1.92;;
43311;SDS011;30041;48.300;16.352;2023-07-29T01:41:57;3.25;;;2.08;;
43311;SDS011;30041;48.300;16.352;2023-07-29T01:44:23;5.15;;;2.10;;
43311;SDS011;30041;48.300;16.352;2023-07-29T01:46:51;2.92;;;2.00;;
43311;SDS011;30041;48.300;16.352;2023-07-29T01:49:16;2.42;;;1.63;;
43311;SDS011;30041;48.300;16.352;2023-07-29T01:51:42;3.00;;;2.35;;
43311;SDS011;30041;48.300;16.352;2023-07-29T01:54:07;3.50;;;2.10;;
43311;SDS011;30041;48.300;16.352;2023-07-29T01:56:33;2.63;;;2.17;;
43311;SDS011;30041;48.300;16.352;2023-07-29T01:58:58;2.67;;;2.05;;
43311;SDS011;30041;48.300;16.352;2023-07-29T02:01:25;2.35;;;1.77;;
43311;SDS011;30041;48.300;16.352;2023-07-29T02:03:51;3.65;;;2.42;;
43311;SDS011;30041;48.300;16.352;2023-07-29T02:06:16;6.55;;;2.28;;
43311;SDS011;30041;48.300;16.352;2023-07-29T02:08:42;2.80;;;2.17;;
43311;SDS011;30041;48.300;16.352;2023-07-29T02:11:08;2.85;;;2.20;;
43311;SDS011;30041;48.300;16.352;2023-07-29T02:13:33;2.58;;;2.00;;
43311;SDS011;30041;48.300;16.352;2023-07-29T02:15:59;3.15;;;2.20;;
43311;SDS011;30041;48.300;16.352;2023-07-29T02:18:24;3.13;;;2.20;;
43311;SDS011;30041;48.300;16.352;2023-07-29T02:20:50;3.10;;;2.03;;
43311;SDS011;30041;48.300;16.352;2023-07-29T02:23:15;2.63;;;1.95;;
43311;SDS011;30041;48.300;16.352;2023-07-29T02:25:41;3.88;;;2.05;;
43311;SDS011;30041;48.300;16.352;2023-07-29T02:28:06;2.92;;;2.08;;
43311;SDS011;30041;48.300;16.352;2023-07-29T02:30:32;2.60;;;2.10;;
43311;SDS011;30041;48.300;16.352;2023-07-29T02:32:57;2.60;;;2.10;;
43311;SDS011;30041;48.300;16.352;2023-07-29T02:35:23;2.42;;;2.00;;
43311;SDS011;30041;48.300;16.352;2023-07-29T02:37:48;2.30;;;1.80;;
43311;SDS011;30041;48.300;16.352;2023-07-29T02:40:14;3.47;;;2.20;;
43311;SDS011;30041;48.300;16.352;2023-07-29T02:42:39;2.75;;;2.00;;
43311;SDS011;30041;48.300;16.352;2023-07-29T02:45:05;2.90;;;2.30;;
43311;SDS011;30041;48.300;16.352;2023-07-29T02:47:31;3.08;;;2.20;;
43311;SDS011;30041;48.300;16.352;2023-07-29T02:49:57;4.35;;;2.20;;
43311;SDS011;30041;48.300;16.352;2023-07-29T02:52:22;3.28;;;2.47;;
43311;SDS011;30041;48.300;16.352;2023-07-29T02:54:48;2.67;;;1.95;;
43311;SDS011;30041;48.300;16.352;2023-07-29T02:57:14;2.55;;;2.15;;
43311;SDS011;30041;48.300;16.352;2023-07-29T02:59:39;3.30;;;2.00;;
43311;SDS011;30041;48.300;16.352;2023-07-29T03:02:05;3.05;;;2.17;;
43311;SDS011;30041;48.300;16.352;2023-07-29T03:04:30;3.00;;;2.00;;
43311;SDS011;30041;48.300;16.352;2023-07-29T03:06:56;2.40;;;2.00;;
43311;SDS011;30041;48.300;16.352;2023-07-29T03:09:21;2.90;;;2.28;;
43311;SDS011;30041;48.300;16.352;2023-07-29T03:11:47;3.63;;;2.17;;
43311;SDS011;30041;48.300;16.352;2023-07-29T03:14:12;2.28;;;2.00;;
43311;SDS011;30041;48.300;16.352;2023-07-29T03:16:38;3.67;;;2.03;;
43311;SDS011;30041;48.300;16.352;2023-07-29T03:19:03;2.90;;;2.13;;
43311;SDS011;30041;48.300;16.352;2023-07-29T03:21:29;2.85;;;2.13;;
43311;SDS011;30041;48.300;16.352;2023-07-29T03:23:55;3.38;;;2.22;;
43311;SDS011;30041;48.300;16.352;2023-07-29T03:26:20;3.15;;;2.05;;
43311;SDS011;30041;48.300;16.352;2023-07-29T03:28:46;2.70;;;2.30;;
43311;SDS011;30041;48.300;16.352;2023-07-29T03:31:11;2.90;;;2.03;;
43311;SDS011;30041;48.300;16.352;2023-07-29T03:33:37;3.85;;;2.10;;
43311;SDS011;30041;48.300;16.352;2023-07-29T03:36:03;3.03;;;2.15;;
43311;SDS011;30041;48.300;16.352;2023-07-29T03:38:31;2.65;;;1.75;;
43311;SDS011;30041;48.300;16.352;2023-07-29T03:40:56;3.28;;;2.20;;
43311;SDS011;30041;48.300;16.352;2023-07-29T03:43:22;2.67;;;1.90;;
43311;SDS011;30041;48.300;16.352;2023-07-29T03:45:48;2.58;;;2.03;;
43311;SDS011;30041;48.300;16.352;2023-07-29T03:48:13;2.88;;;1.92;;
43311;SDS011;30041;48.300;16.352;2023-07-29T03:50:39;3.20;;;2.00;;
43311;SDS011;30041;48.300;16.352;2023-07-29T03:53:05;3.35;;;1.95;;
43311;SDS011;30041;48.300;16.352;2023-07-29T03:55:31;2.50;;;1.98;;
43311;SDS011;30041;48.300;16.352;2023-07-29T03:57:57;2.67;;;2.10;;
43311;SDS011;30041;48.300;16.352;2023-07-29T04:00:26;2.38;;;1.90;;
43311;SDS011;30041;48.300;16.352;2023-07-29T04:02:52;2.63;;;2.08;;
43311;SDS011;30041;48.300;16.352;2023-07-29T04:05:18;3.72;;;2.20;;
43311;SDS011;30041;48.300;16.352;2023-07-29T04:07:47;3.05;;;2.15;;
43311;SDS011;30041;48.300;16.352;2023-07-29T04:10:13;3.08;;;2.17;;
43311;SDS011;30041;48.300;16.352;2023-07-29T04:12:38;3.97;;;2.08;;
43311;SDS011;30041;48.300;16.352;2023-07-29T04:15:04;2.60;;;1.73;;
43311;SDS011;30041;48.300;16.352;2023-07-29T04:17:30;2.47;;;2.00;;
43311;SDS011;30041;48.300;16.352;2023-07-29T04:19:56;2.58;;;2.00;;
43311;SDS011;30041;48.300;16.352;2023-07-29T04:22:22;3.08;;;2.03;;
43311;SDS011;30041;48.300;16.352;2023-07-29T04:24:47;2.80;;;1.90;;
43311;SDS011;30041;48.300;16.352;2023-07-29T04:27:13;3.17;;;2.05;;
43311;SDS011;30041;48.300;16.352;2023-07-29T04:29:41;3.35;;;1.92;;
43311;SDS011;30041;48.300;16.352;2023-07-29T04:32:07;4.05;;;2.17;;
43311;SDS011;30041;48.300;16.352;2023-07-29T04:34:32;2.25;;;1.80;;
43311;SDS011;30041;48.300;16.352;2023-07-29T04:36:58;2.17;;;1.75;;
43311;SDS011;30041;48.300;16.352;2023-07-29T04:39:23;2.40;;;1.80;;
43311;SDS011;30041;48.300;16.352;2023-07-29T04:41:49;2.72;;;1.88;;
43311;SDS011;30041;48.300;16.352;2023-07-29T04:44:14;2.95;;;1.90;;
43311;SDS011;30041;48.300;16.352;2023-07-29T04:46:40;3.38;;;2.22;;
43311;SDS011;30041;48.300;16.352;2023-07-29T04:49:06;2.80;;;2.13;;
43311;SDS011;30041;48.300;16.352;2023-07-29T04:51:31;3.13;;;2.10;;
43311;SDS011;30041;48.300;16.352;2023-07-29T04:53:57;3.60;;;2.13;;
43311;SDS011;30041;48.300;16.352;2023-07-29T04:56:23;3.45;;;2.50;;
43311;SDS011;30041;48.300;16.352;2023-07-29T04:58:49;2.92;;;2.20;;
43311;SDS011;30041;48.300;16.352;2023-07-29T05:01:15;3.83;;;2.17;;
43311;SDS011;30041;48.300;16.352;2023-07-29T05:03:40;3.72;;;2.30;;
43311;SDS011;30041;48.300;16.352;2023-07-29T05:06:06;2.90;;;2.30;;
43311;SDS011;30041;48.300;16.352;2023-07-29T05:08:32;4.47;;;2.28;;
43311;SDS011;30041;48.300;16.352;2023-07-29T05:10:58;3.35;;;2.15;;
43311;SDS011;30041;48.300;16.352;2023-07-29T05:13:23;4.40;;;2.20;;
43311;SDS011;30041;48.300;16.352;2023-07-29T05:15:49;5.28;;;1.92;;
43311;SDS011;30041;48.300;16.352;2023-07-29T05:18:15;3.50;;;1.90;;
43311;SDS011;30041;48.300;16.352;2023-07-29T05:20:41;2.58;;;1.95;;
43311;SDS011;30041;48.300;16.352;2023-07-29T05:23:07;3.33;;;2.08;;
43311;SDS011;30041;48.300;16.352;2023-07-29T05:25:35;3.35;;;2.10;;
43311;SDS011;30041;48.300;16.352;2023-07-29T05:28:02;2.75;;;2.05;;
43311;SDS011;30041;48.300;16.352;2023-07-29T05:30:28;3.70;;;2.10;;
43311;SDS011;30041;48.300;16.352;2023-07-29T05:32:54;6.93;;;2.15;;
43311;SDS011;30041;48.300;16.352;2023-07-29T05:35:23;3.70;;;2.00;;
43311;SDS011;30041;48.300;16.352;2023-07-29T05:37:52;3.55;;;2.28;;
43311;SDS011;30041;48.300;16.352;2023-07-29T05:40:18;3.90;;;2.03;;
43311;SDS011;30041;48.300;16.352;2023-07-29T05:42:44;4.07;;;1.90;;
43311;SDS011;30041;48.300;16.352;2023-07-29T05:45:10;4.35;;;1.98;;
43311;SDS011;30041;48.300;16.352;2023-07-29T05:47:36;2.83;;;1.90;;
43311;SDS011;30041;48.300;16.352;2023-07-29T05:50:02;6.47;;;2.10;;
43311;SDS011;30041;48.300;16.352;2023-07-29T05:52:28;4.07;;;2.17;;
43311;SDS011;30041;48.300;16.352;2023-07-29T05:54:57;3.65;;;2.00;;
43311;SDS011;30041;48.300;16.352;2023-07-29T05:57:23;3.88;;;1.73;;
43311;SDS011;30041;48.300;16.352;2023-07-29T05:59:48;8.93;;;2.03;;
43311;SDS011;30041;48.300;16.352;2023-07-29T06:02:14;5.63;;;1.98;;
43311;SDS011;30041;48.300;16.352;2023-07-29T06:04:39;4.00;;;1.58;;
43311;SDS011;30041;48.300;16.352;2023-07-29T06:07:05;3.47;;;1.92;;
43311;SDS011;30041;48.300;16.352;2023-07-29T06:09:31;5.35;;;1.95;;
43311;SDS011;30041;48.300;16.352;2023-07-29T06:11:57;2.88;;;1.80;;
43311;SDS011;30041;48.300;16.352;2023-07-29T06:14:28;2.95;;;1.65;;
43311;SDS011;30041;48.300;16.352;2023-07-29T06:16:53;3.28;;;1.90;;
43311;SDS011;30041;48.300;16.352;2023-07-29T06:19:19;2.42;;;1.60;;
43311;SDS011;30041;48.300;16.352;2023-07-29T06:21:45;3.47;;;1.85;;
43311;SDS011;30041;48.300;16.352;2023-07-29T06:24:11;2.60;;;1.70;;
43311;SDS011;30041;48.300;16.352;2023-07-29T06:26:37;4.40;;;1.90;;
43311;SDS011;30041;48.300;16.352;2023-07-29T06:29:02;2.97;;;1.83;;
43311;SDS011;30041;48.300;16.352;2023-07-29T06:31:28;4.85;;;1.80;;
43311;SDS011;30041;48.300;16.352;2023-07-29T06:33:54;2.42;;;1.70;;
43311;SDS011;30041;48.300;16.352;2023-07-29T06:36:22;3.33;;;1.90;;
43311;SDS011;30041;48.300;16.352;2023-07-29T06:38:50;2.25;;;1.45;;
43311;SDS011;30041;48.300;16.352;2023-07-29T06:41:16;3.25;;;1.80;;
43311;SDS011;30041;48.300;16.352;2023-07-29T06:43:42;2.97;;;1.80;;
43311;SDS011;30041;48.300;16.352;2023-07-29T06:46:10;2.53;;;1.70;;
43311;SDS011;30041;48.300;16.352;2023-07-29T06:48:36;2.22;;;1.63;;
43311;SDS011;30041;48.300;16.352;2023-07-29T06:51:05;2.13;;;1.30;;
43311;SDS011;30041;48.300;16.352;2023-07-29T06:53:30;2.53;;;1.42;;
43311;SDS011;30041;48.300;16.352;2023-07-29T06:55:56;2.53;;;1.60;;
43311;SDS011;30041;48.300;16.352;2023-07-29T06:58:22;2.90;;;1.70;;
43311;SDS011;30041;48.300;16.352;2023-07-29T07:00:47;2.25;;;1.65;;
43311;SDS011;30041;48.300;16.352;2023-07-29T07:03:13;2.28;;;1.50;;
43311;SDS011;30041;48.300;16.352;2023-07-29T07:05:38;2.10;;;1.40;;
43311;SDS011;30041;48.300;16.352;2023-07-29T07:08:04;2.20;;;1.45;;
43311;SDS011;30041;48.300;16.352;2023-07-29T07:10:30;3.88;;;1.60;;
43311;SDS011;30041;48.300;16.352;2023-07-29T07:12:55;2.30;;;1.30;;
43311;SDS011;30041;48.300;16.352;2023-07-29T07:15:21;2.88;;;1.80;;
43311;SDS011;30041;48.300;16.352;2023-07-29T07:17:46;2.72;;;1.38;;
43311;SDS011;30041;48.300;16.352;2023-07-29T07:20:12;1.67;;;1.35;;
43311;SDS011;30041;48.300;16.352;2023-07-29T07:22:37;2.85;;;1.40;;
43311;SDS011;30041;48.300;16.352;2023-07-29T07:25:03;2.15;;;1.50;;
43311;SDS011;30041;48.300;16.352;2023-07-29T07:27:29;6.97;;;1.80;;
43311;SDS011;30041;48.300;16.352;2023-07-29T07:29:55;2.75;;;1.50;;
43311;SDS011;30041;48.300;16.352;2023-07-29T07:32:23;2.92;;;1.65;;
43311;SDS011;30041;48.300;16.352;2023-07-29T07:34:49;3.88;;;1.45;;
43311;SDS011;30041;48.300;16.352;2023-07-29T07:37:15;3.30;;;1.50;;
43311;SDS011;30041;48.300;16.352;2023-07-29T07:39:41;3.35;;;1.48;;
43311;SDS011;30041;48.300;16.352;2023-07-29T07:42:06;4.40;;;1.52;;
43311;SDS011;30041;48.300;16.352;2023-07-29T07:44:32;1.85;;;1.30;;
43311;SDS011;30041;48.300;16.352;2023-07-29T07:47:00;2.92;;;1.70;;
43311;SDS011;30041;48.300;16.352;2023-07-29T07:49:26;2.92;;;1.33;;
43311;SDS011;30041;48.300;16.352;2023-07-29T07:51:51;2.10;;;1.30;;
43311;SDS011;30041;48.300;16.352;2023-07-29T07:54:17;3.55;;;1.40;;
43311;SDS011;30041;48.300;16.352;2023-07-29T07:56:43;3.22;;;1.40;;
43311;SDS011;30041;48.300;16.352;2023-07-29T07:59:08;6.10;;;1.58;;
43311;SDS011;30041;48.300;16.352;2023-07-29T08:01:35;4.00;;;1.50;;
43311;SDS011;30041;48.300;16.352;2023-07-29T08:04:01;3.15;;;1.35;;
43311;SDS011;30041;48.300;16.352;2023-07-29T08:06:26;3.65;;;1.33;;
43311;SDS011;30041;48.300;16.352;2023-07-29T08:08:52;5.80;;;1.50;;
43311;SDS011;30041;48.300;16.352;2023-07-29T08:11:18;2.20;;;1.20;;
43311;SDS011;30041;48.300;16.352;2023-07-29T08:13:44;3.55;;;1.13;;
43311;SDS011;30041;48.300;16.352;2023-07-29T08:16:09;4.45;;;1.25;;
43311;SDS011;30041;48.300;16.352;2023-07-29T08:18:35;3.45;;;1.45;;
43311;SDS011;30041;48.300;16.352;2023-07-29T08:21:04;3.30;;;1.40;;
43311;SDS011;30041;48.300;16.352;2023-07-29T08:23:34;4.10;;;1.50;;
43311;SDS011;30041;48.300;16.352;2023-07-29T08:26:01;3.75;;;1.50;;
43311;SDS011;30041;48.300;16.352;2023-07-29T08:28:29;4.15;;;1.42;;
43311;SDS011;30041;48.300;16.352;2023-07-29T08:30:59;5.07;;;1.60;;
43311;SDS011;30041;48.300;16.352;2023-07-29T08:33:25;3.13;;;1.38;;
43311;SDS011;30041;48.300;16.352;2023-07-29T08:35:52;2.92;;;1.67;;
43311;SDS011;30041;48.300;16.352;2023-07-29T08:38:18;3.22;;;1.50;;
43311;SDS011;30041;48.300;16.352;2023-07-29T08:43:19;1.95;;;1.15;;
43311;SDS011;30041;48.300;16.352;2023-07-29T08:48:29;3.70;;;1.50;;
43311;SDS011;30041;48.300;16.352;2023-07-29T08:51:00;3.47;;;1.10;;
43311;SDS011;30041;48.300;16.352;2023-07-29T08:53:28;3.38;;;1.52;;
43311;SDS011;30041;48.300;16.352;2023-07-29T08:55:54;2.28;;;1.48;;
43311;SDS011;30041;48.300;16.352;2023-07-29T08:58:19;5.85;;;1.27;;
43311;SDS011;30041;48.300;16.352;2023-07-29T09:00:45;3.90;;;1.45;;
43311;SDS011;30041;48.300;16.352;2023-07-29T09:03:11;4.70;;;1.30;;
43311;SDS011;30041;48.300;16.352;2023-07-29T09:05:37;2.92;;;1.10;;
43311;SDS011;30041;48.300;16.352;2023-07-29T09:08:03;2.88;;;1.10;;
43311;SDS011;30041;48.300;16.352;2023-07-29T09:10:29;4.10;;;1.20;;
43311;SDS011;30041;48.300;16.352;2023-07-29T09:12:55;4.18;;;1.10;;
43311;SDS011;30041;48.300;16.352;2023-07-29T09:15:27;2.53;;;1.20;;
43311;SDS011;30041;48.300;16.352;2023-07-29T09:17:57;4.88;;;1.35;;
43311;SDS011;30041;48.300;16.352;2023-07-29T09:20:27;3.03;;;1.20;;
43311;SDS011;30041;48.300;16.352;2023-07-29T09:22:57;3.38;;;1.25;;
43311;SDS011;30041;48.300;16.352;2023-07-29T09:25:24;3.28;;;1.00;;
43311;SDS011;30041;48.300;16.352;2023-07-29T09:27:57;2.60;;;0.90;;
43311;SDS011;30041;48.300;16.352;2023-07-29T09:30:32;5.13;;;1.30;;
43311;SDS011;30041;48.300;16.352;2023-07-29T09:32:58;1.60;;;0.98;;
43311;SDS011;30041;48.300;16.352;2023-07-29T09:35:27;2.20;;;1.10;;
43311;SDS011;30041;48.300;16.352;2023-07-29T09:37:55;3.08;;;1.38;;
43311;SDS011;30041;48.300;16.352;2023-07-29T09:40:21;3.28;;;0.90;;
43311;SDS011;30041;48.300;16.352;2023-07-29T09:42:56;2.25;;;1.30;;
43311;SDS011;30041;48.300;16.352;2023-07-29T09:45:25;2.40;;;1.23;;
43311;SDS011;30041;48.300;16.352;2023-07-29T09:47:52;2.47;;;1.20;;
43311;SDS011;30041;48.300;16.352;2023-07-29T09:50:25;4.85;;;1.50;;
43311;SDS011;30041;48.300;16.352;2023-07-29T09:52:54;5.15;;;1.13;;
43311;SDS011;30041;48.300;16.352;2023-07-29T09:55:21;7.78;;;1.30;;
43311;SDS011;30041;48.300;16.352;2023-07-29T09:57:47;6.38;;;1.38;;
43311;SDS011;30041;48.300;16.352;2023-07-29T10:00:13;3.05;;;1.25;;
43311;SDS011;30041;48.300;16.352;2023-07-29T10:02:39;2.15;;;1.10;;
43311;SDS011;30041;48.300;16.352;2023-07-29T10:05:07;2.72;;;1.40;;
43311;SDS011;30041;48.300;16.352;2023-07-29T10:07:35;2.92;;;1.08;;
43311;SDS011;30041;48.300;16.352;2023-07-29T10:10:02;3.00;;;1.20;;
43311;SDS011;30041;48.300;16.352;2023-07-29T10:12:30;6.68;;;1.55;;
43311;SDS011;30041;48.300;16.352;2023-07-29T10:14:57;10.52;;;1.70;;
43311;SDS011;30041;48.300;16.352;2023-07-29T10:17:24;7.10;;;1.20;;
43311;SDS011;30041;48.300;16.352;2023-07-29T10:19:51;6.50;;;1.30;;
43311;SDS011;30041;48.300;16.352;2023-07-29T10:22:18;3.17;;;1.20;;
43311;SDS011;30041;48.300;16.352;2023-07-29T10:24:46;2.63;;;1.27;;
43311;SDS011;30041;48.300;16.352;2023-07-29T10:27:18;2.00;;;1.23;;
43311;SDS011;30041;48.300;16.352;2023-07-29T10:29:46;6.28;;;1.40;;
43311;SDS011;30041;48.300;16.352;2023-07-29T10:32:12;5.35;;;1.05;;
43311;SDS011;30041;48.300;16.352;2023-07-29T10:34:39;6.35;;;1.48;;
43311;SDS011;30041;48.300;16.352;2023-07-29T10:37:05;3.72;;;1.40;;
43311;SDS011;30041;48.300;16.352;2023-07-29T10:39:39;2.08;;;1.00;;
43311;SDS011;30041;48.300;16.352;2023-07-29T10:42:05;4.28;;;1.50;;
43311;SDS011;30041;48.300;16.352;2023-07-29T10:47:13;3.90;;;1.20;;
43311;SDS011;30041;48.300;16.352;2023-07-29T10:49:47;5.38;;;1.17;;
43311;SDS011;30041;48.300;16.352;2023-07-29T10:52:15;3.20;;;1.40;;
43311;SDS011;30041;48.300;16.352;2023-07-29T10:54:52;2.40;;;1.08;;
43311;SDS011;30041;48.300;16.352;2023-07-29T10:57:31;4.55;;;1.27;;
43311;SDS011;30041;48.300;16.352;2023-07-29T10:59:58;3.70;;;1.40;;
43311;SDS011;30041;48.300;16.352;2023-07-29T11:02:31;2.03;;;1.20;;
43311;SDS011;30041;48.300;16.352;2023-07-29T11:05:00;2.78;;;1.40;;
43311;SDS011;30041;48.300;16.352;2023-07-29T11:07:49;3.55;;;1.35;;
43311;SDS011;30041;48.300;16.352;2023-07-29T11:10:15;3.47;;;1.30;;
43311;SDS011;30041;48.300;16.352;2023-07-29T11:12:50;1.73;;;0.90;;
43311;SDS011;30041;48.300;16.352;2023-07-29T11:15:26;3.45;;;0.98;;
43311;SDS011;30041;48.300;16.352;2023-07-29T11:17:57;3.20;;;1.10;;
43311;SDS011;30041;48.300;16.352;2023-07-29T11:20:26;1.38;;;0.98;;
43311;SDS011;30041;48.300;16.352;2023-07-29T11:22:54;3.10;;;1.08;;
43311;SDS011;30041;48.300;16.352;2023-07-29T11:25:21;1.90;;;1.02;;
43311;SDS011;30041;48.300;16.352;2023-07-29T11:27:48;3.00;;;1.10;;
43311;SDS011;30041;48.300;16.352;2023-07-29T11:30:17;3.97;;;1.17;;
43311;SDS011;30041;48.300;16.352;2023-07-29T11:32:43;1.75;;;1.08;;
43311;SDS011;30041;48.300;16.352;2023-07-29T11:35:13;2.92;;;1.10;;
43311;SDS011;30041;48.300;16.352;2023-07-29T11:37:40;1.70;;;1.10;;
43311;SDS011;30041;48.300;16.352;2023-07-29T11:40:08;1.40;;;1.08;;
43311;SDS011;30041;48.300;16.352;2023-07-29T11:42:34;4.20;;;0.98;;
43311;SDS011;30041;48.300;16.352;2023-07-29T11:45:00;1.25;;;0.80;;
43311;SDS011;30041;48.300;16.352;2023-07-29T11:47:27;2.22;;;1.02;;
43311;SDS011;30041;48.300;16.352;2023-07-29T11:49:58;3.00;;;1.30;;
43311;SDS011;30041;48.300;16.352;2023-07-29T11:52:24;3.63;;;1.10;;
43311;SDS011;30041;48.300;16.352;2023-07-29T11:54:50;1.58;;;1.00;;
43311;SDS011;30041;48.300;16.352;2023-07-29T11:57:19;4.50;;;1.17;;
43311;SDS011;30041;48.300;16.352;2023-07-29T11:59:46;1.98;;;1.08;;
43311;SDS011;30041;48.300;16.352;2023-07-29T12:02:12;1.90;;;1.10;;
43311;SDS011;30041;48.300;16.352;2023-07-29T12:04:40;3.50;;;1.10;;
43311;SDS011;30041;48.300;16.352;2023-07-29T12:07:08;3.97;;;1.20;;
43311;SDS011;30041;48.300;16.352;2023-07-29T12:09:36;2.08;;;1.10;;
43311;SDS011;30041;48.300;16.352;2023-07-29T12:12:03;3.63;;;1.30;;
43311;SDS011;30041;48.300;16.352;2023-07-29T12:14:30;2.70;;;1.25;;
43311;SDS011;30041;48.300;16.352;2023-07-29T12:16:59;1.67;;;1.20;;
43311;SDS011;30041;48.300;16.352;2023-07-29T12:19:35;2.20;;;1.30;;
43311;SDS011;30041;48.300;16.352;2023-07-29T12:22:02;1.70;;;1.10;;
43311;SDS011;30041;48.300;16.352;2023-07-29T12:24:32;3.15;;;1.30;;
43311;SDS011;30041;48.300;16.352;2023-07-29T12:27:00;2.72;;;1.13;;
43311;SDS011;30041;48.300;16.352;2023-07-29T12:29:26;2.28;;;1.20;;
43311;SDS011;30041;48.300;16.352;2023-07-29T12:31:58;2.40;;;1.20;;
43311;SDS011;30041;48.300;16.352;2023-07-29T12:34:26;3.60;;;1.20;;
43311;SDS011;30041;48.300;16.352;2023-07-29T12:36:52;2.28;;;1.10;;
43311;SDS011;30041;48.300;16.352;2023-07-29T12:39:18;1.83;;;1.30;;
43311;SDS011;30041;48.300;16.352;2023-07-29T12:41:45;1.73;;;1.23;;
43311;SDS011;30041;48.300;16.352;2023-07-29T12:44:11;2.83;;;1.50;;
43311;SDS011;30041;48.300;16.352;2023-07-29T12:46:37;3.58;;;1.10;;
43311;SDS011;30041;48.300;16.352;2023-07-29T12:49:02;2.25;;;1.30;;
43311;SDS011;30041;48.300;16.352;2023-07-29T12:51:28;2.15;;;1.23;;
43311;SDS011;30041;48.300;16.352;2023-07-29T12:53:54;7.20;;;1.40;;
43311;SDS011;30041;48.300;16.352;2023-07-29T12:56:19;5.10;;;1.63;;
43311;SDS011;30041;48.300;16.352;2023-07-29T12:58:45;2.83;;;1.15;;
43311;SDS011;30041;48.300;16.352;2023-07-29T13:01:11;2.50;;;1.30;;
43311;SDS011;30041;48.300;16.352;2023-07-29T13:03:36;4.35;;;1.20;;
43311;SDS011;30041;48.300;16.352;2023-07-29T13:06:02;7.13;;;1.65;;
43311;SDS011;30041;48.300;16.352;2023-07-29T13:08:29;6.68;;;1.45;;
43311;SDS011;30041;48.300;16.352;2023-07-29T13:10:55;7.22;;;1.30;;
43311;SDS011;30041;48.300;16.352;2023-07-29T13:13:21;7.25;;;1.30;;
43311;SDS011;30041;48.300;16.352;2023-07-29T13:15:46;5.03;;;1.40;;
43311;SDS011;30041;48.300;16.352;2023-07-29T13:18:12;5.85;;;1.20;;
43311;SDS011;30041;48.300;16.352;2023-07-29T13:20:37;4.38;;;1.30;;
43311;SDS011;30041;48.300;16.352;2023-07-29T13:23:03;3.38;;;1.13;;
43311;SDS011;30041;48.300;16.352;2023-07-29T13:25:28;4.22;;;1.10;;
43311;SDS011;30041;48.300;16.352;2023-07-29T13:27:54;2.22;;;1.10;;
43311;SDS011;30041;48.300;16.352;2023-07-29T13:30:19;3.83;;;1.20;;
43311;SDS011;30041;48.300;16.352;2023-07-29T13:32:45;2.70;;;1.42;;
43311;SDS011;30041;48.300;16.352;2023-07-29T13:35:10;4.03;;;1.30;;
43311;SDS011;30041;48.300;16.352;2023-07-29T13:37:36;3.60;;;1.10;;
43311;SDS011;30041;48.300;16.352;2023-07-29T13:40:02;7.63;;;1.40;;
43311;SDS011;30041;48.300;16.352;2023-07-29T13:42:27;3.38;;;1.48;;
43311;SDS011;30041;48.300;16.352;2023-07-29T13:44:53;2.00;;;1.20;;
43311;SDS011;30041;48.300;16.352;2023-07-29T13:47:18;1.33;;;0.98;;
43311;SDS011;30041;48.300;16.352;2023-07-29T13:49:44;2.60;;;1.17;;
43311;SDS011;30041;48.300;16.352;2023-07-29T13:52:09;2.53;;;1.50;;
43311;SDS011;30041;48.300;16.352;2023-07-29T13:54:35;3.15;;;1.40;;
43311;SDS011;30041;48.300;16.352;2023-07-29T13:57:01;4.53;;;1.40;;
43311;SDS011;30041;48.300;16.352;2023-07-29T13:59:27;2.67;;;1.27;;
43311;SDS011;30041;48.300;16.352;2023-07-29T14:01:52;2.05;;;1.10;;
43311;SDS011;30041;48.300;16.352;2023-07-29T14:04:18;2.85;;;1.20;;
43311;SDS011;30041;48.300;16.352;2023-07-29T14:06:43;10.60;;;1.40;;
43311;SDS011;30041;48.300;16.352;2023-07-29T14:09:09;7.10;;;1.38;;
43311;SDS011;30041;48.300;16.352;2023-07-29T14:11:34;4.00;;;1.38;;
43311;SDS011;30041;48.300;16.352;2023-07-29T14:14:02;4.28;;;1.20;;
43311;SDS011;30041;48.300;16.352;2023-07-29T14:16:28;3.10;;;1.27;;
43311;SDS011;30041;48.300;16.352;2023-07-29T14:18:53;2.53;;;1.23;;
43311;SDS011;30041;48.300;16.352;2023-07-29T14:21:19;3.15;;;1.13;;
43311;SDS011;30041;48.300;16.352;2023-07-29T14:23:44;2.97;;;1.50;;
43311;SDS011;30041;48.300;16.352;2023-07-29T14:26:10;3.40;;;1.40;;
43311;SDS011;30041;48.300;16.352;2023-07-29T14:28:38;2.20;;;1.40;;
43311;SDS011;30041;48.300;16.352;2023-07-29T14:31:04;4.53;;;1.80;;
43311;SDS011;30041;48.300;16.352;2023-07-29T14:33:29;3.05;;;1.40;;
43311;SDS011;30041;48.300;16.352;2023-07-29T14:35:55;4.28;;;1.33;;
43311;SDS011;30041;48.300;16.352;2023-07-29T14:38:20;2.22;;;1.20;;
43311;SDS011;30041;48.300;16.352;2023-07-29T14:40:47;4.18;;;1.30;;